Portada
METAR-TAF:

METAR-TAF

Aeroports :

Hazleton, Pennsilvània, Estats Units d'Amèrica

latitud: 40-59-12N, longitud: 075-59-42W, altitud: 489 m

Observació

L'informe es va fer fa 21 minuts, a les 10:55 UTC
Vent 3 kt del Nord-Est
Temperatura 8°C
Humitat 87%
Pressió 1012 hPa
Visibilitat: 11.3 km
Núvols disperses a una alçada de 6000 ft
Cel ennuvolat a una alçada de 7500 ft
Cel cobert a una alçada de 9000 ft
pluja

METAR: KHZL 291055Z AUTO 05003KT 7SM RA SCT060 BKN075 OVC090 08/06 A2989 RMK AO2 P0004

Hora: 07:16 (11:16 UTC)


TAF: manca

Observacions i pronòstics meteorològics de més de 4000 aeroports (METAR i TAF).

Les estacions disponibles són els punts grocs i vermells al mapa.

Posi el ratolí al punt desitjat per veure el nom de l'estació.

Feu clic per veure les observacions i els pronòstics meteorològics.

Per canviar el mapa: feu clic els botons verds amb una creu de color negre per apropar; al botó verd amb un guió per allunyar la imatge; o en les fletxes verdes per a mapes adjacents.


METAR-TAF: